Time,TemperatureF,DewpointF,PressureIn,WindDirection,WindDirectionDegrees,WindSpeedMPH,WindSpeedGustMPH,Humidity,HourlyPrecipIn,Conditions,Clouds,dailyrainin,SolarRadiationWatts/m^2,SoftwareType,DateUTC
2013-05-17 00:02:00,67.5,34.1,29.95,SSE,160,3.5,7.0,29,0.00,OVC,,0.00,0.0,WeatherDisplay:10.37,2013-05-17 05:02:00,
2013-05-17 00:07:00,67.4,34.0,29.95,ENE,78,2.9,10.4,29,0.00,SCT,,0.00,0.0,WeatherDisplay:10.37,2013-05-17 05:07:00,
2013-05-17 00:12:00,67.4,34.0,29.95,NE,53,1.3,7.0,29,0.00,SCT,,0.00,0.0,WeatherDisplay:10.37,2013-05-17 05:12:00,
2013-05-17 00:17:00,67.3,33.9,29.96,SSE,160,2.6,5.0,29,0.00,SCT,,0.00,0.0,WeatherDisplay:10.37,2013-05-17 05:17:00,
2013-05-17 00:22:00,67.3,33.9,29.96,SW,230,1.8,8.0,29,0.00,SCT,,0.00,0.0,WeatherDisplay:10.37,2013-05-17 05:22:00,
2013-05-17 00:27:00,67.2,33.8,29.96,SSE,159,1.1,3.5,29,0.00,SCT,,0.00,0.0,WeatherDisplay:10.37,2013-05-17 05:27:00,
2013-05-17 00:32:00,66.8,34.3,29.96,SSE,165,0.9,5.0,30,0.00,SCT,,0.00,0.0,WeatherDisplay:10.37,2013-05-17 05:32:00,
2013-05-17 00:37:00,66.7,33.4,29.96,SE,142,1.7,3.5,29,0.00,SCT,,0.00,0.0,WeatherDisplay:10.37,2013-05-17 05:37:00,
2013-05-17 00:42:00,66.7,33.4,29.96,NE,46,4.3,9.0,29,0.00,SCT,,0.00,0.0,WeatherDisplay:10.37,2013-05-17 05:42:00,
2013-05-17 00:47:00,66.5,33.2,29.96,South,171,0.9,3.5,29,0.00,SCT,,0.00,0.0,WeatherDisplay:10.37,2013-05-17 05:47:00,
2013-05-17 00:52:00,66.4,33.2,29.95,NE,34,2.6,7.0,29,0.00,SCT,,0.00,0.0,WeatherDisplay:10.37,2013-05-17 05:52:00,
2013-05-17 00:57:00,66.4,33.2,29.95,East,84,1.8,9.2,29,0.00,SCT,,0.00,0.0,WeatherDisplay:10.37,2013-05-17 05:57:00,
2013-05-17 01:02:00,66.3,32.2,29.95,SSW,207,1.9,6.0,28,0.00,SCT,,0.00,0.0,WeatherDisplay:10.37,2013-05-17 06:02:00,
2013-05-17 01:07:00,66.3,32.2,29.95,SSE,151,2.9,6.0,28,0.00,OVC,,0.00,0.0,WeatherDisplay:10.37,2013-05-17 06:07:00,
2013-05-17 01:12:00,66.3,32.2,29.95,SE,139,2.4,6.0,28,0.00,OVC,,0.00,0.0,WeatherDisplay:10.37,2013-05-17 06:12:00,
2013-05-17 01:17:00,66.2,32.1,29.95,SSE,165,2.8,6.0,28,0.00,OVC,,0.00,0.0,WeatherDisplay:10.37,2013-05-17 06:17:00,
2013-05-17 01:22:00,66.1,32.0,29.95,East,98,1.7,4.0,28,0.00,OVC,,0.00,0.0,WeatherDisplay:10.37,2013-05-17 06:22:00,
2013-05-17 01:27:00,65.9,32.7,29.95,SSE,157,1.1,3.5,29,0.00,OVC,,0.00,0.0,WeatherDisplay:10.37,2013-05-17 06:27:00,
2013-05-17 01:32:00,65.9,32.7,29.95,SE,140,0.6,2.3,29,0.00,OVC,,0.00,0.0,WeatherDisplay:10.37,2013-05-17 06:32:00,
2013-05-17 01:37:00,65.8,32.6,29.95,SSE,163,0.6,4.0,29,0.00,OVC,,0.00,0.0,WeatherDisplay:10.37,2013-05-17 06:37:00,
2013-05-17 01:42:00,65.7,32.5,29.95,NE,47,1.4,3.5,29,0.00,OVC,,0.00,0.0,WeatherDisplay:10.37,2013-05-17 06:42:00,
2013-05-17 01:47:00,65.6,32.5,29.95,South,179,2.6,4.0,29,0.00,OVC,,0.00,0.0,WeatherDisplay:10.37,2013-05-17 06:47:00,
2013-05-17 01:52:00,65.5,32.4,29.95,SSW,199,2.5,6.0,29,0.00,OVC,,0.00,0.0,WeatherDisplay:10.37,2013-05-17 06:52:00,
2013-05-17 01:57:00,65.4,32.3,29.95,SSE,159,0.3,1.2,29,0.00,OVC,,0.00,0.0,WeatherDisplay:10.37,2013-05-17 06:57:00,
2013-05-17 02:02:00,65.4,31.4,29.95,SSE,166,3.6,6.0,28,0.00,OVC,,0.00,0.0,WeatherDisplay:10.37,2013-05-17 07:02:00,
2013-05-17 02:07:00,65.5,31.5,29.94,East,91,2.6,10.4,28,0.00,OVC,,0.00,0.0,WeatherDisplay:10.37,2013-05-17 07:07:00,
2013-05-17 02:12:00,65.4,31.4,29.94,SSE,149,0.4,3.0,28,0.00,OVC,,0.00,0.0,WeatherDisplay:10.37,2013-05-17 07:12:00,
2013-05-17 02:17:00,65.3,31.3,29.95,ESE,103,2.5,4.0,28,0.00,OVC,,0.00,0.0,WeatherDisplay:10.37,2013-05-17 07:17:00,
2013-05-17 02:22:00,65.2,33.0,29.95,SSE,163,1.0,3.5,30,0.00,OVC,,0.00,0.0,WeatherDisplay:10.37,2013-05-17 07:22:00,
2013-05-17 02:27:00,65.1,32.0,29.94,ESE,105,1.6,4.0,29,0.00,OVC,,0.00,0.0,WeatherDisplay:10.37,2013-05-17 07:27:00,
2013-05-17 02:32:00,65.2,31.2,29.94,SW,225,2.5,7.0,28,0.00,OVC,,0.00,0.0,WeatherDisplay:10.37,2013-05-17 07:32:00,
2013-05-17 02:37:00,65.2,32.1,29.94,SW,223,1.8,4.0,29,0.00,OVC,,0.00,0.0,WeatherDisplay:10.37,2013-05-17 07:37:00,
2013-05-17 02:42:00,65.2,32.1,29.94,East,99,2.4,7.0,29,0.00,OVC,,0.00,0.0,WeatherDisplay:10.37,2013-05-17 07:42:00,
2013-05-17 02:47:00,65.2,32.1,29.94,WSW,242,1.2,3.5,29,0.00,OVC,,0.00,0.0,WeatherDisplay:10.37,2013-05-17 07:47:00,
2013-05-17 02:52:00,65.2,32.1,29.94,NE,36,1.0,4.0,29,0.00,OVC,,0.00,0.0,WeatherDisplay:10.37,2013-05-17 07:52:00,
2013-05-17 02:57:00,65.1,32.9,29.93,NE,54,1.6,5.0,30,0.00,OVC,,0.00,0.0,WeatherDisplay:10.37,2013-05-17 07:57:00,
2013-05-17 03:02:00,65.0,32.8,29.93,South,184,0.6,4.0,30,0.00,OVC,,0.00,0.0,WeatherDisplay:10.37,2013-05-17 08:02:00,
2013-05-17 03:07:00,64.9,32.7,29.93,SSE,165,5.4,7.0,30,0.00,OVC,,0.00,0.0,WeatherDisplay:10.37,2013-05-17 08:07:00,
2013-05-17 03:12:00,64.7,33.3,29.94,NNE,31,1.1,3.5,31,0.00,OVC,,0.00,0.0,WeatherDisplay:10.37,2013-05-17 08:12:00,
2013-05-17 03:17:00,64.7,33.3,29.94,NNW,332,0.6,3.0,31,0.00,OVC,,0.00,0.0,WeatherDisplay:10.37,2013-05-17 08:17:00,
2013-05-17 03:22:00,64.7,33.3,29.93,NE,55,2.2,5.0,31,0.00,OVC,,0.00,0.0,WeatherDisplay:10.37,2013-05-17 08:22:00,
2013-05-17 03:27:00,64.6,34.1,29.93,NE,38,2.0,5.0,32,0.00,OVC,,0.00,0.0,WeatherDisplay:10.37,2013-05-17 08:27:00,
2013-05-17 03:32:00,64.5,34.0,29.94,ENE,69,1.7,5.0,32,0.00,OVC,,0.00,0.0,WeatherDisplay:10.37,2013-05-17 08:32:00,
2013-05-17 03:37:00,64.4,34.6,29.94,SW,218,1.8,4.0,33,0.00,OVC,,0.00,0.0,WeatherDisplay:10.37,2013-05-17 08:37:00,
2013-05-17 03:42:00,64.4,34.6,29.94,SE,125,1.7,5.0,33,0.00,OVC,,0.00,0.0,WeatherDisplay:10.37,2013-05-17 08:42:00,
2013-05-17 03:47:00,64.2,34.5,29.94,SSE,157,2.2,4.6,33,0.00,OVC,,0.00,0.0,WeatherDisplay:10.37,2013-05-17 08:47:00,
2013-05-17 03:52:00,64.1,34.4,29.94,ENE,67,1.5,4.0,33,0.00,OVC,,0.00,0.0,WeatherDisplay:10.37,2013-05-17 08:52:00,
2013-05-17 03:57:00,63.9,34.2,29.94,ENE,63,1.7,3.5,33,0.00,OVC,,0.00,0.0,WeatherDisplay:10.37,2013-05-17 08:57:00,
2013-05-17 04:02:00,63.8,34.1,29.94,NNE,22,0.0,1.2,33,0.00,OVC,,0.00,0.0,WeatherDisplay:10.37,2013-05-17 09:02:00,
2013-05-17 04:07:00,63.6,33.9,29.94,NNE,13,1.4,3.5,33,0.00,OVC,,0.00,0.0,WeatherDisplay:10.37,2013-05-17 09:07:00,
2013-05-17 04:12:00,63.5,34.6,29.94,NW,325,0.3,3.5,34,0.00,OVC,,0.00,0.0,WeatherDisplay:10.37,2013-05-17 09:12:00,
2013-05-17 04:17:00,63.4,34.5,29.94,ESE,116,1.1,4.0,34,0.00,OVC,,0.00,0.0,WeatherDisplay:10.37,2013-05-17 09:17:00,
2013-05-17 04:22:00,63.2,34.3,29.94,East,88,1.7,3.5,34,0.00,OVC,,0.00,0.0,WeatherDisplay:10.37,2013-05-17 09:22:00,
2013-05-17 04:27:00,63.0,34.2,29.94,ENE,74,1.5,3.5,34,0.00,OVC,,0.00,0.0,WeatherDisplay:10.37,2013-05-17 09:27:00,
2013-05-17 04:32:00,62.8,34.7,29.94,East,82,3.0,8.1,35,0.00,OVC,,0.00,0.0,WeatherDisplay:10.37,2013-05-17 09:32:00,
2013-05-17 04:37:00,62.6,34.5,29.94,North,9,1.7,3.5,35,0.00,OVC,,0.00,0.0,WeatherDisplay:10.37,2013-05-17 09:37:00,
2013-05-17 04:42:00,62.3,35.0,29.95,ESE,122,1.4,5.8,36,0.00,OVC,,0.00,0.0,WeatherDisplay:10.37,2013-05-17 09:42:00,
2013-05-17 04:47:00,62.1,34.8,29.95,East,90,1.8,6.9,36,0.00,OVC,,0.00,0.0,WeatherDisplay:10.37,2013-05-17 09:47:00,
2013-05-17 04:52:00,62.0,34.7,29.95,ESE,109,4.5,6.0,36,0.00,OVC,,0.00,0.0,WeatherDisplay:10.37,2013-05-17 09:52:00,
2013-05-17 04:57:00,61.8,34.5,29.95,ENE,74,0.6,4.6,36,0.00,OVC,,0.00,0.0,WeatherDisplay:10.37,2013-05-17 09:57:00,
2013-05-17 05:02:00,61.6,34.4,29.95,ENE,74,2.0,5.0,36,0.00,OVC,,0.00,0.0,WeatherDisplay:10.37,2013-05-17 10:02:00,
2013-05-17 05:07:00,61.4,34.9,29.95,NNW,333,2.8,5.0,37,0.00,OVC,,0.00,0.0,WeatherDisplay:10.37,2013-05-17 10:07:00,
2013-05-17 05:12:00,61.3,34.8,29.95,NNE,13,2.6,5.0,37,0.00,OVC,,0.00,0.0,WeatherDisplay:10.37,2013-05-17 10:12:00,
2013-05-17 05:17:00,61.2,34.7,29.95,NE,41,2.4,6.0,37,0.00,OVC,,0.00,0.0,WeatherDisplay:10.37,2013-05-17 10:17:00,
2013-05-17 05:22:00,61.1,34.6,29.96,NE,36,2.9,6.0,37,0.00,OVC,,0.00,0.0,WeatherDisplay:10.37,2013-05-17 10:22:00,
2013-05-17 05:27:00,61.0,34.5,29.96,NE,42,3.8,9.2,37,0.00,OVC,,0.00,0.0,WeatherDisplay:10.37,2013-05-17 10:27:00,
2013-05-17 05:32:00,60.9,35.1,29.96,ENE,59,1.9,9.0,38,0.00,OVC,,0.00,0.0,WeatherDisplay:10.37,2013-05-17 10:32:00,
2013-05-17 05:37:00,60.7,34.9,29.96,NNE,20,1.5,4.0,38,0.00,OVC,,0.00,0.0,WeatherDisplay:10.37,2013-05-17 10:37:00,
2013-05-17 05:42:00,60.7,34.9,29.97,ENE,72,1.7,4.0,38,0.00,OVC,,0.00,0.0,WeatherDisplay:10.37,2013-05-17 10:42:00,
2013-05-17 05:47:00,60.6,34.8,29.97,SE,134,2.3,7.0,38,0.00,OVC,,0.00,0.0,WeatherDisplay:10.37,2013-05-17 10:47:00,
2013-05-17 05:52:00,60.3,35.2,29.97,East,96,1.3,6.0,39,0.00,OVC,,0.00,0.0,WeatherDisplay:10.37,2013-05-17 10:52:00,
2013-05-17 05:57:00,60.3,35.2,29.97,South,175,1.5,3.5,39,0.00,OVC,,0.00,0.0,WeatherDisplay:10.37,2013-05-17 10:57:00,
2013-05-17 06:02:00,60.2,35.8,29.97,East,96,2.5,7.0,40,0.00,OVC,,0.00,0.0,WeatherDisplay:10.37,2013-05-17 11:02:00,
2013-05-17 06:07:00,60.2,35.8,29.97,NE,34,1.2,5.0,40,0.00,OVC,,0.00,0.0,WeatherDisplay:10.37,2013-05-17 11:07:00,
2013-05-17 06:12:00,60.1,35.7,29.97,ESE,108,1.4,3.5,40,0.00,OVC,,0.00,0.0,WeatherDisplay:10.37,2013-05-17 11:12:00,
2013-05-17 06:17:00,60.0,36.2,29.97,East,80,4.8,10.0,41,0.00,OVC,,0.00,5.0,WeatherDisplay:10.37,2013-05-17 11:17:00,
2013-05-17 06:22:00,59.9,36.1,29.97,WSW,250,1.1,4.6,41,0.00,OVC,,0.00,9.0,WeatherDisplay:10.37,2013-05-17 11:22:00,
2013-05-17 06:27:00,59.8,36.6,29.97,ESE,117,3.2,7.0,42,0.00,OVC,,0.00,11.0,WeatherDisplay:10.37,2013-05-17 11:27:00,
2013-05-17 06:32:00,59.7,36.6,29.98,ENE,68,2.4,5.0,42,0.00,OVC,,0.00,14.0,WeatherDisplay:10.37,2013-05-17 11:32:00,
2013-05-17 06:37:00,59.5,37.0,29.98,NE,44,1.6,5.0,43,0.00,OVC,,0.00,16.0,WeatherDisplay:10.37,2013-05-17 11:37:00,
2013-05-17 06:42:00,59.5,37.0,29.98,ESE,111,2.9,8.1,43,0.00,OVC,,0.00,19.0,WeatherDisplay:10.37,2013-05-17 11:42:00,
2013-05-17 06:47:00,59.5,37.0,29.98,ENE,76,3.3,6.0,43,0.00,OVC,,0.00,25.0,WeatherDisplay:10.37,2013-05-17 11:47:00,
2013-05-17 06:52:00,59.5,37.6,29.98,NE,49,2.4,6.0,44,0.00,OVC,,0.00,23.0,WeatherDisplay:10.37,2013-05-17 11:52:00,
2013-05-17 06:57:00,59.3,37.9,29.98,ESE,112,2.8,7.0,45,0.00,OVC,,0.00,23.0,WeatherDisplay:10.37,2013-05-17 11:57:00,
2013-05-17 07:02:00,59.1,38.3,29.98,NE,36,1.1,7.0,46,0.00,OVC,,0.00,25.0,WeatherDisplay:10.37,2013-05-17 12:02:00,
2013-05-17 07:07:00,58.9,38.1,29.98,ENE,70,0.8,7.0,46,0.00,OVC,,0.00,32.0,WeatherDisplay:10.37,2013-05-17 12:07:00,
2013-05-17 07:12:00,58.8,38.6,29.98,ENE,65,3.7,7.0,47,0.00,OVC,,0.00,37.0,WeatherDisplay:10.37,2013-05-17 12:12:00,
2013-05-17 07:17:00,58.7,38.5,29.98,ENE,57,2.3,7.0,47,0.00,OVC,,0.00,42.0,WeatherDisplay:10.37,2013-05-17 12:17:00,
2013-05-17 07:22:00,58.6,39.0,29.98,SSE,165,1.5,5.0,48,0.00,OVC,,0.00,47.0,WeatherDisplay:10.37,2013-05-17 12:22:00,
2013-05-17 07:27:00,58.6,39.0,29.99,East,95,2.3,4.6,48,0.00,OVC,,0.00,42.0,WeatherDisplay:10.37,2013-05-17 12:27:00,
2013-05-17 07:32:00,58.5,39.4,29.99,ESE,113,1.1,5.0,49,0.00,OVC,,0.00,35.0,WeatherDisplay:10.37,2013-05-17 12:32:00,
2013-05-17 07:37:00,58.5,39.9,29.99,ENE,65,3.2,7.0,50,0.00,OVC,,0.00,40.0,WeatherDisplay:10.37,2013-05-17 12:37:00,
2013-05-17 07:42:00,58.6,40.0,29.99,ENE,64,2.3,5.0,50,0.00,OVC,,0.00,53.0,WeatherDisplay:10.37,2013-05-17 12:42:00,
2013-05-17 07:47:00,58.4,40.3,29.99,ENE,74,2.1,5.0,51,0.00,OVC,,0.00,42.0,WeatherDisplay:10.37,2013-05-17 12:47:00,
2013-05-17 07:52:00,58.5,40.4,29.99,ENE,66,1.8,6.0,51,0.00,OVC,,0.00,39.0,WeatherDisplay:10.37,2013-05-17 12:52:00,
2013-05-17 07:57:00,58.5,40.9,30.00,ENE,67,1.2,3.0,52,0.00,OVC,,0.00,40.0,WeatherDisplay:10.37,2013-05-17 12:57:00,
2013-05-17 08:02:00,58.5,40.9,30.00,ENE,78,1.2,3.5,52,0.00,OVC,,0.00,46.0,WeatherDisplay:10.37,2013-05-17 13:02:00,
2013-05-17 08:07:00,58.4,41.3,30.00,NE,34,2.7,4.6,53,0.00,OVC,,0.00,47.0,WeatherDisplay:10.37,2013-05-17 13:07:00,
2013-05-17 08:12:00,58.2,41.6,30.00,East,89,1.0,2.3,54,0.00,OVC,,0.00,54.0,WeatherDisplay:10.37,2013-05-17 13:12:00,
2013-05-17 08:17:00,58.4,41.8,30.00,ENE,74,1.0,3.0,54,0.00,OVC,,0.00,58.0,WeatherDisplay:10.37,2013-05-17 13:17:00,
2013-05-17 08:22:00,58.5,41.9,30.00,North,5,0.9,3.5,54,0.00,OVC,,0.00,58.0,WeatherDisplay:10.37,2013-05-17 13:22:00,
2013-05-17 08:27:00,58.5,42.4,30.00,NE,42,0.8,3.5,55,0.00,OVC,,0.00,53.0,WeatherDisplay:10.37,2013-05-17 13:27:00,
2013-05-17 08:32:00,58.4,42.3,30.00,East,90,1.5,5.0,55,0.00,OVC,,0.00,54.0,WeatherDisplay:10.37,2013-05-17 13:32:00,
2013-05-17 08:37:00,58.3,42.7,30.01,NE,52,0.8,3.5,56,0.00,OVC,,0.00,53.0,WeatherDisplay:10.37,2013-05-17 13:37:00,
2013-05-17 08:43:00,57.6,44.2,30.01,ENE,76,2.0,3.5,61,0.00,OVC,,0.00,58.0,WeatherDisplay:10.37,2013-05-17 13:43:00,
2013-05-17 08:48:00,57.2,44.7,30.01,NE,34,1.1,2.0,63,0.00,OVC,,0.00,67.0,WeatherDisplay:10.37,2013-05-17 13:48:00,
2013-05-17 08:53:00,57.2,44.7,30.01,NNE,24,0.7,2.0,63,0.00,OVC,,0.00,95.0,WeatherDisplay:10.37,2013-05-17 13:53:00,
2013-05-17 08:58:00,57.6,45.1,30.01,NE,51,1.3,2.3,63,0.00,OVC,,0.00,102.0,WeatherDisplay:10.37,2013-05-17 13:58:00,
2013-05-17 09:03:00,57.7,45.2,30.01,NE,53,2.8,5.0,63,0.00,OVC,,0.00,128.0,WeatherDisplay:10.37,2013-05-17 14:03:00,
2013-05-17 09:08:00,57.9,45.0,30.01,NE,43,4.2,6.0,62,0.00,OVC,,0.00,114.0,WeatherDisplay:10.37,2013-05-17 14:08:00,
2013-05-17 09:13:00,57.7,44.8,30.01,NNE,29,2.4,4.0,62,0.00,OVC,,0.00,132.0,WeatherDisplay:10.37,2013-05-17 14:13:00,
2013-05-17 09:18:00,57.7,45.2,30.01,NE,56,1.5,4.6,63,0.00,OVC,,0.00,142.0,WeatherDisplay:10.37,2013-05-17 14:18:00,
2013-05-17 09:23:00,57.6,44.7,30.01,ENE,69,3.0,8.1,62,0.00,OVC,,0.00,132.0,WeatherDisplay:10.37,2013-05-17 14:23:00,
2013-05-17 09:28:00,57.7,44.3,30.00,NE,54,4.2,8.0,61,0.00,OVC,,0.00,144.0,WeatherDisplay:10.37,2013-05-17 14:28:00,
2013-05-17 09:33:00,57.6,44.7,30.00,ENE,61,3.3,5.0,62,0.00,OVC,,0.00,167.0,WeatherDisplay:10.37,2013-05-17 14:33:00,
2013-05-17 09:38:00,58.0,44.6,30.00,ENE,71,3.3,7.0,61,0.00,OVC,,0.00,183.0,WeatherDisplay:10.37,2013-05-17 14:38:00,
2013-05-17 09:43:00,58.5,45.1,30.00,NE,41,2.1,5.0,61,0.00,OVC,,0.00,188.0,WeatherDisplay:10.37,2013-05-17 14:43:00,
2013-05-17 09:48:00,58.6,45.6,30.00,NE,51,1.2,3.5,62,0.00,OVC,,0.00,179.0,WeatherDisplay:10.37,2013-05-17 14:48:00,
2013-05-17 09:53:00,58.7,45.7,30.00,NE,36,1.6,5.0,62,0.00,OVC,,0.00,209.0,WeatherDisplay:10.37,2013-05-17 14:53:00,
2013-05-17 09:58:00,58.9,45.9,30.00,NE,46,0.6,3.5,62,0.00,OVC,,0.00,271.0,WeatherDisplay:10.37,2013-05-17 14:58:00,
2013-05-17 10:03:00,59.3,45.8,30.00,NW,319,0.3,2.3,61,0.00,OVC,,0.00,255.0,WeatherDisplay:10.37,2013-05-17 15:03:00,
2013-05-17 10:08:00,60.0,46.1,30.00,NE,50,3.6,6.0,60,0.00,BKN,,0.00,295.0,WeatherDisplay:10.37,2013-05-17 15:08:00,
2013-05-17 10:13:00,60.5,46.5,30.00,NNW,330,1.2,3.5,60,0.00,BKN,,0.00,396.0,WeatherDisplay:10.37,2013-05-17 15:13:00,
2013-05-17 10:18:00,61.2,47.2,30.00,North,355,1.7,5.0,60,0.00,BKN,,0.00,512.0,WeatherDisplay:10.37,2013-05-17 15:18:00,
2013-05-17 10:23:00,62.5,48.0,30.00,NE,48,1.6,9.0,59,0.00,BKN,,0.00,856.0,WeatherDisplay:10.37,2013-05-17 15:23:00,
2013-05-17 10:28:00,63.9,49.3,29.99,South,181,1.5,8.1,59,0.00,BKN,,0.00,976.0,WeatherDisplay:10.37,2013-05-17 15:28:00,
2013-05-17 10:33:00,64.6,50.4,29.99,NNE,28,3.8,7.0,60,0.00,BKN,,0.00,496.0,WeatherDisplay:10.37,2013-05-17 15:33:00,
2013-05-17 10:38:00,65.6,51.3,29.99,SSW,205,3.5,7.0,60,0.00,BKN,,0.00,478.0,WeatherDisplay:10.37,2013-05-17 15:38:00,
2013-05-17 10:43:00,66.1,51.4,29.99,ESE,117,2.1,5.0,59,0.00,BKN,,0.00,492.0,WeatherDisplay:10.37,2013-05-17 15:43:00,
2013-05-17 10:48:00,65.9,52.1,30.00,SE,141,3.7,8.1,61,0.00,BKN,,0.00,357.0,WeatherDisplay:10.37,2013-05-17 15:48:00,
2013-05-17 10:53:00,66.0,53.5,29.99,SSE,155,4.3,9.2,64,0.00,BKN,,0.00,316.0,WeatherDisplay:10.37,2013-05-17 15:53:00,
2013-05-17 10:58:00,66.2,54.1,29.99,SE,143,5.8,8.1,65,0.00,BKN,,0.00,431.0,WeatherDisplay:10.37,2013-05-17 15:58:00,
2013-05-17 11:03:00,65.6,54.3,29.99,NE,53,2.8,7.0,67,0.00,BKN,,0.00,397.0,WeatherDisplay:10.37,2013-05-17 16:03:00,
2013-05-17 11:08:00,65.9,54.2,29.99,West,268,2.4,8.0,66,0.00,OVC,,0.00,311.0,WeatherDisplay:10.37,2013-05-17 16:08:00,
2013-05-17 11:13:00,66.2,54.5,29.99,SW,225,2.2,4.6,66,0.00,OVC,,0.00,299.0,WeatherDisplay:10.37,2013-05-17 16:13:00,
2013-05-17 11:18:00,66.3,54.6,29.99,SE,138,4.3,13.0,66,0.00,OVC,,0.00,248.0,WeatherDisplay:10.37,2013-05-17 16:18:00,
2013-05-17 11:23:00,65.6,54.3,30.00,SSE,165,4.2,7.0,67,0.00,OVC,,0.00,327.0,WeatherDisplay:10.37,2013-05-17 16:23:00,
2013-05-17 11:28:00,65.6,54.8,30.00,South,189,4.3,7.0,68,0.00,OVC,,0.00,237.0,WeatherDisplay:10.37,2013-05-17 16:28:00,
2013-05-17 11:33:00,65.6,54.8,30.00,SSE,163,6.1,9.2,68,0.00,OVC,,0.00,197.0,WeatherDisplay:10.37,2013-05-17 16:33:00,
2013-05-17 11:38:00,65.3,54.9,29.99,South,179,2.7,6.0,69,0.00,OVC,,0.00,202.0,WeatherDisplay:10.37,2013-05-17 16:38:00,
2013-05-17 11:43:00,64.8,54.8,30.00,South,191,5.5,8.1,70,0.00,OVC,,0.00,167.0,WeatherDisplay:10.37,2013-05-17 16:43:00,
2013-05-17 11:48:00,64.8,54.4,30.00,SE,141,6.3,9.2,69,0.00,OVC,,0.00,167.0,WeatherDisplay:10.37,2013-05-17 16:48:00,
2013-05-17 11:53:00,64.6,54.6,30.00,South,169,1.4,5.0,70,0.00,OVC,,0.00,155.0,WeatherDisplay:10.37,2013-05-17 16:53:00,
2013-05-17 11:58:00,64.1,54.1,30.00,SSE,157,4.2,8.1,70,0.00,OVC,,0.00,149.0,WeatherDisplay:10.37,2013-05-17 16:58:00,
2013-05-17 12:03:00,63.8,54.2,30.01,South,172,2.4,5.0,71,0.00,OVC,,0.00,148.0,WeatherDisplay:10.37,2013-05-17 17:03:00,
2013-05-17 12:08:00,63.8,54.2,30.01,SE,142,4.7,8.0,71,0.00,OVC,,0.00,128.0,WeatherDisplay:10.37,2013-05-17 17:08:00,
2013-05-17 12:13:00,63.0,53.4,30.01,ENE,78,3.0,5.8,71,0.00,OVC,,0.00,155.0,WeatherDisplay:10.37,2013-05-17 17:13:00,
2013-05-17 12:18:00,63.1,53.9,30.01,West,263,2.1,9.2,72,0.00,OVC,,0.00,155.0,WeatherDisplay:10.37,2013-05-17 17:18:00,
2013-05-17 12:23:00,62.6,53.4,30.01,SSW,212,1.2,6.9,72,0.00,OVC,,0.00,144.0,WeatherDisplay:10.37,2013-05-17 17:23:00,
2013-05-17 12:28:00,62.3,53.5,30.01,SSE,167,4.1,9.2,73,0.00,OVC,,0.00,176.0,WeatherDisplay:10.37,2013-05-17 17:28:00,
2013-05-17 12:33:00,62.0,53.6,30.01,SE,136,4.3,9.0,74,0.00,OVC,,0.00,171.0,WeatherDisplay:10.37,2013-05-17 17:33:00,
2013-05-17 12:38:00,61.6,54.0,30.01,South,190,1.5,5.0,76,0.00,OVC,,0.00,202.0,WeatherDisplay:10.37,2013-05-17 17:38:00,
2013-05-17 12:43:00,61.2,53.9,30.02,SE,140,1.7,3.5,77,0.00,OVC,,0.00,93.0,WeatherDisplay:10.37,2013-05-17 17:43:00,
2013-05-17 12:48:00,60.7,53.8,30.02,SW,216,2.8,6.9,78,0.00,OVC,,0.00,86.0,WeatherDisplay:10.37,2013-05-17 17:48:00,
2013-05-17 12:53:00,60.5,54.0,30.01,West,261,1.0,4.0,79,0.00,OVC,,0.00,76.0,WeatherDisplay:10.37,2013-05-17 17:53:00,
2013-05-17 12:58:00,59.7,53.5,30.01,North,355,1.3,3.5,80,0.00,OVC,,0.00,77.0,WeatherDisplay:10.37,2013-05-17 17:58:00,
2013-05-17 13:03:00,59.5,53.7,30.01,SSW,192,1.6,6.0,81,0.00,OVC,,0.00,86.0,WeatherDisplay:10.37,2013-05-17 18:03:00,
2013-05-17 13:08:00,59.0,53.5,30.01,SE,131,5.2,9.2,82,0.00,OVC,,0.00,137.0,WeatherDisplay:10.37,2013-05-17 18:08:00,
2013-05-17 13:13:00,58.9,54.1,30.01,South,180,3.5,5.0,84,0.00,OVC,,0.00,162.0,WeatherDisplay:10.37,2013-05-17 18:13:00,
2013-05-17 13:18:00,58.7,54.5,30.01,South,188,1.1,3.5,86,0.00,OVC,,0.00,120.0,WeatherDisplay:10.37,2013-05-17 18:18:00,
2013-05-17 13:23:00,58.7,54.2,30.01,WSW,254,3.6,6.0,85,0.00,OVC,,0.00,84.0,WeatherDisplay:10.37,2013-05-17 18:23:00,
2013-05-17 13:28:00,58.3,54.4,30.01,SSE,150,3.8,9.2,87,0.00,OVC,,0.00,102.0,WeatherDisplay:10.37,2013-05-17 18:28:00,
2013-05-17 13:33:00,57.8,54.0,30.01,NW,304,1.2,3.5,87,0.00,OVC,,0.00,100.0,WeatherDisplay:10.37,2013-05-17 18:33:00,
2013-05-17 13:38:00,57.7,54.5,30.01,ENE,61,1.9,5.0,89,0.00,OVC,,0.00,70.0,WeatherDisplay:10.37,2013-05-17 18:38:00,
2013-05-17 13:43:00,57.5,54.3,30.02,SE,134,1.7,5.0,89,0.00,OVC,,0.00,53.0,WeatherDisplay:10.37,2013-05-17 18:43:00,
2013-05-17 13:48:00,57.5,54.3,30.02,ENE,78,1.6,3.5,89,0.00,OVC,,0.00,70.0,WeatherDisplay:10.37,2013-05-17 18:48:00,
2013-05-17 13:53:00,57.6,54.4,30.02,East,90,1.6,4.0,89,0.00,OVC,,0.00,114.0,WeatherDisplay:10.37,2013-05-17 18:53:00,
2013-05-17 13:58:00,58.0,54.5,30.01,ESE,108,0.6,3.0,88,0.00,OVC,,0.00,114.0,WeatherDisplay:10.37,2013-05-17 18:58:00,
2013-05-17 14:03:00,58.1,54.2,30.01,East,96,1.8,5.0,87,0.00,OVC,,0.00,111.0,WeatherDisplay:10.37,2013-05-17 19:03:00,
2013-05-17 14:08:00,57.9,53.7,30.01,SW,222,2.1,4.0,86,0.00,-RA,,0.00,123.0,WeatherDisplay:10.37,2013-05-17 19:08:00,
2013-05-17 14:13:00,58.0,53.8,30.01,SSW,200,1.7,4.0,86,0.00,-RA,,0.00,113.0,WeatherDisplay:10.37,2013-05-17 19:13:00,
2013-05-17 14:18:00,58.2,54.0,30.01,South,187,3.2,6.0,86,0.00,-RA,,0.00,70.0,WeatherDisplay:10.37,2013-05-17 19:18:00,
2013-05-17 14:23:00,58.1,54.2,30.02,ENE,74,1.6,4.0,87,0.00,-RA,,0.00,39.0,WeatherDisplay:10.37,2013-05-17 19:23:00,
2013-05-17 14:28:00,58.0,54.2,30.01,WSW,251,0.3,3.5,87,0.00,-RA,,0.00,39.0,WeatherDisplay:10.37,2013-05-17 19:28:00,
2013-05-17 14:33:00,57.8,54.3,30.02,ESE,116,1.7,3.5,88,0.00,-RA,,0.00,37.0,WeatherDisplay:10.37,2013-05-17 19:33:00,
2013-05-17 14:38:00,57.7,54.8,30.02,SSE,155,1.0,3.0,90,0.00,-RA,,0.00,28.0,WeatherDisplay:10.37,2013-05-17 19:38:00,
2013-05-17 14:43:00,57.4,54.5,30.02,SW,224,2.9,6.0,90,0.00,-RA,,0.00,67.0,WeatherDisplay:10.37,2013-05-17 19:43:00,
2013-05-17 14:48:00,57.2,54.6,30.01,SSE,157,0.5,3.5,91,0.01,-RA,,0.01,83.0,WeatherDisplay:10.37,2013-05-17 19:48:00,
2013-05-17 14:53:00,57.2,55.2,30.01,SW,216,1.4,5.0,93,0.03,-RA,,0.04,98.0,WeatherDisplay:10.37,2013-05-17 19:53:00,
2013-05-17 14:58:00,57.0,55.0,30.01,ENE,73,1.8,4.0,93,0.05,-RA,,0.06,120.0,WeatherDisplay:10.37,2013-05-17 19:58:00,
2013-05-17 15:03:00,56.8,55.1,30.01,ENE,57,2.8,5.0,94,0.06,-RA,,0.07,178.0,WeatherDisplay:10.37,2013-05-17 20:03:00,
2013-05-17 15:08:00,56.7,55.0,30.01,SSW,213,0.8,3.5,94,0.10,RA,,0.10,130.0,WeatherDisplay:10.37,2013-05-17 20:08:00,
2013-05-17 15:13:00,56.7,55.0,30.01,South,184,0.8,4.0,94,0.12,RA,,0.12,102.0,WeatherDisplay:10.37,2013-05-17 20:13:00,
2013-05-17 15:18:00,56.8,55.4,30.01,SSW,194,0.9,3.0,95,0.13,RA,,0.13,137.0,WeatherDisplay:10.37,2013-05-17 20:18:00,
2013-05-17 15:23:00,56.7,55.3,30.01,SE,141,2.7,11.0,95,0.14,RA,,0.14,146.0,WeatherDisplay:10.37,2013-05-17 20:23:00,
2013-05-17 15:28:00,56.8,55.4,30.01,ESE,118,2.3,4.6,95,0.16,RA,,0.16,90.0,WeatherDisplay:10.37,2013-05-17 20:28:00,
2013-05-17 15:33:00,56.7,55.3,30.01,East,91,2.0,6.9,95,0.16,RA,,0.16,93.0,WeatherDisplay:10.37,2013-05-17 20:33:00,
2013-05-17 15:38:00,56.8,55.4,30.00,South,173,2.2,5.0,95,0.16,OVC,,0.16,109.0,WeatherDisplay:10.37,2013-05-17 20:38:00,
2013-05-17 15:43:00,56.9,55.5,30.00,NNE,28,1.1,4.0,95,0.16,OVC,,0.16,121.0,WeatherDisplay:10.37,2013-05-17 20:43:00,
2013-05-17 15:48:00,57.0,55.6,30.00,SSE,156,0.2,2.3,95,0.15,OVC,,0.16,118.0,WeatherDisplay:10.37,2013-05-17 20:48:00,
2013-05-17 15:53:00,57.1,55.7,30.00,South,178,1.6,5.0,95,0.13,OVC,,0.16,105.0,WeatherDisplay:10.37,2013-05-17 20:53:00,
2013-05-17 15:58:00,57.3,55.9,30.00,NE,55,2.8,5.0,95,0.11,OVC,,0.16,116.0,WeatherDisplay:10.37,2013-05-17 20:58:00,
2013-05-17 16:03:00,57.3,55.9,30.00,WSW,243,1.8,6.9,95,0.10,OVC,,0.16,130.0,WeatherDisplay:10.37,2013-05-17 21:03:00,
2013-05-17 16:08:00,57.5,56.1,30.00,East,90,1.1,3.5,95,0.06,OVC,,0.16,160.0,WeatherDisplay:10.37,2013-05-17 21:08:00,
2013-05-17 16:13:00,57.6,55.9,30.00,South,175,3.8,7.0,94,0.04,OVC,,0.16,151.0,WeatherDisplay:10.37,2013-05-17 21:13:00,
2013-05-17 16:18:00,57.7,56.0,30.00,East,92,3.3,7.0,94,0.03,OVC,,0.16,151.0,WeatherDisplay:10.37,2013-05-17 21:18:00,
2013-05-17 16:23:00,57.8,56.1,30.00,NW,315,1.8,4.0,94,0.02,OVC,,0.16,120.0,WeatherDisplay:10.37,2013-05-17 21:23:00,
2013-05-17 16:29:00,57.9,56.2,30.00,SW,236,0.8,3.5,94,0.00,OVC,,0.16,121.0,WeatherDisplay:10.37,2013-05-17 21:29:00,
2013-05-17 16:34:00,57.8,55.8,30.00,East,95,0.7,4.6,93,0.00,OVC,,0.16,83.0,WeatherDisplay:10.37,2013-05-17 21:34:00,
2013-05-17 16:39:00,57.7,55.7,30.00,SW,217,3.2,7.0,93,0.00,OVC,,0.16,79.0,WeatherDisplay:10.37,2013-05-17 21:39:00,
2013-05-17 16:44:00,57.7,55.7,30.00,SSW,211,2.9,6.0,93,0.00,OVC,,0.16,72.0,WeatherDisplay:10.37,2013-05-17 21:44:00,
2013-05-17 16:49:00,57.7,55.7,30.00,East,94,3.0,6.0,93,0.00,OVC,,0.16,70.0,WeatherDisplay:10.37,2013-05-17 21:49:00,
2013-05-17 16:54:00,57.6,55.6,30.00,ESE,109,1.9,8.1,93,0.00,OVC,,0.16,67.0,WeatherDisplay:10.37,2013-05-17 21:54:00,
2013-05-17 16:59:00,57.6,55.6,30.00,SE,144,2.4,6.0,93,0.00,OVC,,0.16,100.0,WeatherDisplay:10.37,2013-05-17 21:59:00,
2013-05-17 17:04:00,57.7,55.7,29.99,ESE,121,1.7,6.9,93,0.00,OVC,,0.16,88.0,WeatherDisplay:10.37,2013-05-17 22:04:00,
2013-05-17 17:09:00,57.8,55.8,29.99,East,83,3.2,5.0,93,0.00,OVC,,0.16,98.0,WeatherDisplay:10.37,2013-05-17 22:09:00,
2013-05-17 17:14:00,57.9,55.9,29.99,South,188,1.7,5.0,93,0.00,OVC,,0.16,81.0,WeatherDisplay:10.37,2013-05-17 22:14:00,
2013-05-17 17:19:00,57.8,55.8,30.00,ENE,68,0.4,3.5,93,0.00,OVC,,0.16,76.0,WeatherDisplay:10.37,2013-05-17 22:19:00,
2013-05-17 17:24:00,57.8,55.8,30.00,East,87,1.0,3.5,93,0.00,OVC,,0.16,81.0,WeatherDisplay:10.37,2013-05-17 22:24:00,
2013-05-17 17:29:00,57.9,55.9,30.00,SSW,192,1.7,3.5,93,0.00,OVC,,0.16,69.0,WeatherDisplay:10.37,2013-05-17 22:29:00,
2013-05-17 17:34:00,57.9,55.9,30.00,SSE,167,1.3,3.5,93,0.00,OVC,,0.16,77.0,WeatherDisplay:10.37,2013-05-17 22:34:00,
2013-05-17 17:39:00,57.9,55.9,30.00,East,94,0.9,3.0,93,0.00,OVC,,0.16,70.0,WeatherDisplay:10.37,2013-05-17 22:39:00,
2013-05-17 17:44:00,58.0,56.0,30.00,SE,134,3.0,7.0,93,0.00,OVC,,0.16,81.0,WeatherDisplay:10.37,2013-05-17 22:44:00,
2013-05-17 17:49:00,58.1,55.8,30.00,South,182,0.9,3.5,92,0.00,OVC,,0.16,72.0,WeatherDisplay:10.37,2013-05-17 22:49:00,
2013-05-17 17:54:00,58.2,55.9,29.99,ESE,121,2.0,5.0,92,0.00,OVC,,0.16,76.0,WeatherDisplay:10.37,2013-05-17 22:54:00,
2013-05-17 17:59:00,58.2,55.9,29.99,East,82,1.3,8.1,92,0.00,OVC,,0.16,102.0,WeatherDisplay:10.37,2013-05-17 22:59:00,
2013-05-17 18:04:00,58.2,55.9,29.99,North,5,1.3,3.5,92,0.00,OVC,,0.16,109.0,WeatherDisplay:10.37,2013-05-17 23:04:00,
2013-05-17 18:09:00,58.4,56.1,29.99,SE,146,5.3,10.4,92,0.00,-RA,,0.16,105.0,WeatherDisplay:10.37,2013-05-17 23:09:00,
2013-05-17 18:14:00,58.3,55.4,29.99,SSE,150,2.5,6.0,90,0.00,-RA,,0.16,83.0,WeatherDisplay:10.37,2013-05-17 23:14:00,
2013-05-17 18:19:00,58.3,55.7,29.99,SSE,150,3.3,7.0,91,0.00,-RA,,0.16,86.0,WeatherDisplay:10.37,2013-05-17 23:19:00,
2013-05-17 18:24:00,58.2,55.6,29.98,SSW,197,0.8,2.3,91,0.00,-RA,,0.16,105.0,WeatherDisplay:10.37,2013-05-17 23:24:00,
2013-05-17 18:29:00,58.2,55.3,29.99,NW,324,2.4,5.0,90,0.00,-RA,,0.16,79.0,WeatherDisplay:10.37,2013-05-17 23:29:00,
2013-05-17 18:34:00,58.2,55.3,29.98,SE,144,2.4,7.0,90,0.00,-RA,,0.16,56.0,WeatherDisplay:10.37,2013-05-17 23:34:00,
2013-05-17 18:39:00,58.1,55.5,29.99,SSW,202,1.1,3.5,91,0.00,-RA,,0.16,54.0,WeatherDisplay:10.37,2013-05-17 23:39:00,
2013-05-17 18:44:00,58.2,55.6,29.99,South,173,1.0,4.6,91,0.00,-RA,,0.16,54.0,WeatherDisplay:10.37,2013-05-17 23:44:00,
2013-05-17 18:49:00,58.2,55.6,29.99,South,185,2.9,6.0,91,0.00,-RA,,0.16,58.0,WeatherDisplay:10.37,2013-05-17 23:49:00,
2013-05-17 18:54:00,58.2,55.6,29.99,East,82,2.9,5.0,91,0.00,-RA,,0.16,44.0,WeatherDisplay:10.37,2013-05-17 23:54:00,
2013-05-17 18:59:00,58.2,55.3,29.99,NNE,29,1.3,3.0,90,0.00,-RA,,0.16,56.0,WeatherDisplay:10.37,2013-05-17 23:59:00,
2013-05-17 19:04:00,58.2,55.6,29.98,ESE,104,2.4,5.0,91,0.00,-RA,,0.16,81.0,WeatherDisplay:10.37,2013-05-18 00:04:00,
2013-05-17 19:09:00,58.2,55.6,29.98,SSE,154,1.9,6.0,91,0.00,OVC,,0.16,83.0,WeatherDisplay:10.37,2013-05-18 00:09:00,
2013-05-17 19:14:00,58.2,55.3,29.98,SW,225,1.4,5.8,90,0.00,OVC,,0.16,63.0,WeatherDisplay:10.37,2013-05-18 00:14:00,
2013-05-17 19:19:00,58.2,55.3,29.98,SSW,213,0.6,4.6,90,0.00,OVC,,0.16,63.0,WeatherDisplay:10.37,2013-05-18 00:19:00,
2013-05-17 19:24:00,58.2,55.6,29.98,SSE,160,1.8,4.0,91,0.00,OVC,,0.16,67.0,WeatherDisplay:10.37,2013-05-18 00:24:00,
2013-05-17 19:29:00,58.3,55.4,29.98,South,181,2.1,4.0,90,0.00,OVC,,0.16,54.0,WeatherDisplay:10.37,2013-05-18 00:29:00,
2013-05-17 19:34:00,58.4,55.5,29.98,ENE,78,0.8,3.5,90,0.00,OVC,,0.16,35.0,WeatherDisplay:10.37,2013-05-18 00:34:00,
2013-05-17 19:39:00,58.5,55.6,29.98,NNE,26,5.0,9.0,90,0.00,OVC,,0.16,30.0,WeatherDisplay:10.37,2013-05-18 00:39:00,
2013-05-17 19:44:00,58.4,55.5,29.98,South,171,3.4,9.0,90,0.00,OVC,,0.16,19.0,WeatherDisplay:10.37,2013-05-18 00:44:00,
2013-05-17 19:49:00,58.2,55.3,29.98,South,169,3.9,7.0,90,0.00,OVC,,0.16,23.0,WeatherDisplay:10.37,2013-05-18 00:49:00,
2013-05-17 19:54:00,58.1,55.5,29.98,ENE,65,1.5,3.5,91,0.00,OVC,,0.16,23.0,WeatherDisplay:10.37,2013-05-18 00:54:00,
2013-05-17 19:59:00,58.2,55.6,29.98,NNE,13,2.2,5.8,91,0.00,OVC,,0.16,21.0,WeatherDisplay:10.37,2013-05-18 00:59:00,
2013-05-17 20:04:00,58.3,55.4,29.98,SE,135,2.2,6.9,90,0.00,OVC,,0.16,18.0,WeatherDisplay:10.37,2013-05-18 01:04:00,
2013-05-17 20:09:00,58.1,55.5,29.98,SSE,151,2.4,5.0,91,0.00,OVC,,0.16,11.0,WeatherDisplay:10.37,2013-05-18 01:09:00,
2013-05-17 20:14:00,57.9,55.3,29.97,SSE,161,5.3,11.5,91,0.00,OVC,,0.16,9.0,WeatherDisplay:10.37,2013-05-18 01:14:00,
2013-05-17 20:19:00,57.7,55.1,29.97,SE,131,2.4,5.0,91,0.00,OVC,,0.16,5.0,WeatherDisplay:10.37,2013-05-18 01:19:00,
2013-05-17 20:24:00,57.7,55.1,29.98,NE,55,3.5,8.0,91,0.00,OVC,,0.16,0.0,WeatherDisplay:10.37,2013-05-18 01:24:00,
2013-05-17 20:29:00,57.6,55.0,29.98,SE,146,2.9,7.0,91,0.00,OVC,,0.16,0.0,WeatherDisplay:10.37,2013-05-18 01:29:00,
2013-05-17 20:34:00,57.5,54.9,29.98,NW,317,3.4,6.0,91,0.00,OVC,,0.16,0.0,WeatherDisplay:10.37,2013-05-18 01:34:00,
2013-05-17 20:39:00,57.5,55.2,29.98,East,101,2.7,5.8,92,0.00,OVC,,0.16,0.0,WeatherDisplay:10.37,2013-05-18 01:39:00,
2013-05-17 20:44:00,57.4,55.1,29.98,SSW,196,3.2,7.0,92,0.00,OVC,,0.16,0.0,WeatherDisplay:10.37,2013-05-18 01:44:00,
2013-05-17 20:49:00,57.3,55.0,29.97,ESE,111,3.4,9.2,92,0.00,OVC,,0.16,0.0,WeatherDisplay:10.37,2013-05-18 01:49:00,
2013-05-17 20:54:00,57.3,55.0,29.97,NNW,331,1.5,4.0,92,0.00,OVC,,0.16,0.0,WeatherDisplay:10.37,2013-05-18 01:54:00,
2013-05-17 20:59:00,57.3,55.0,29.97,West,271,1.2,5.8,92,0.00,OVC,,0.16,0.0,WeatherDisplay:10.37,2013-05-18 01:59:00,
2013-05-17 21:04:00,57.2,54.9,29.97,WSW,240,0.7,5.8,92,0.00,OVC,,0.16,0.0,WeatherDisplay:10.37,2013-05-18 02:04:00,
2013-05-17 21:09:00,57.3,55.0,29.98,NE,34,4.1,8.1,92,0.00,OVC,,0.16,0.0,WeatherDisplay:10.37,2013-05-18 02:09:00,
2013-05-17 21:14:00,57.2,54.9,29.98,NE,55,2.7,8.1,92,0.00,OVC,,0.16,0.0,WeatherDisplay:10.37,2013-05-18 02:14:00,
2013-05-17 21:19:00,57.1,55.1,29.97,East,93,1.8,3.5,93,0.00,OVC,,0.16,0.0,WeatherDisplay:10.37,2013-05-18 02:19:00,
2013-05-17 21:24:00,57.0,55.0,29.98,South,180,4.8,7.0,93,0.00,OVC,,0.16,0.0,WeatherDisplay:10.37,2013-05-18 02:24:00,
2013-05-17 21:29:00,56.9,54.9,29.97,NE,55,3.6,7.0,93,0.00,OVC,,0.16,0.0,WeatherDisplay:10.37,2013-05-18 02:29:00,
2013-05-17 21:34:00,56.9,54.9,29.98,SSW,207,1.8,10.4,93,0.00,OVC,,0.16,0.0,WeatherDisplay:10.37,2013-05-18 02:34:00,
2013-05-17 21:39:00,56.9,54.9,29.98,SE,128,3.0,9.0,93,0.00,OVC,,0.16,0.0,WeatherDisplay:10.37,2013-05-18 02:39:00,
2013-05-17 21:44:00,56.8,54.8,29.98,ENE,62,2.9,6.0,93,0.00,OVC,,0.16,0.0,WeatherDisplay:10.37,2013-05-18 02:44:00,
2013-05-17 21:49:00,56.7,55.0,29.99,ESE,108,4.4,7.0,94,0.00,OVC,,0.16,0.0,WeatherDisplay:10.37,2013-05-18 02:49:00,
2013-05-17 21:54:00,56.7,55.0,29.99,South,184,3.9,8.1,94,0.00,OVC,,0.16,0.0,WeatherDisplay:10.37,2013-05-18 02:54:00,
2013-05-17 21:59:00,56.7,55.0,29.99,ESE,105,2.4,5.0,94,0.00,OVC,,0.16,0.0,WeatherDisplay:10.37,2013-05-18 02:59:00,
2013-05-17 22:04:00,56.7,55.0,29.99,North,5,1.0,4.0,94,0.00,OVC,,0.16,0.0,WeatherDisplay:10.37,2013-05-18 03:04:00,
2013-05-17 22:09:00,56.6,54.9,29.99,SSE,165,1.3,3.5,94,0.00,OVC,,0.16,0.0,WeatherDisplay:10.37,2013-05-18 03:09:00,
2013-05-17 22:14:00,56.7,55.0,29.98,NE,40,2.9,6.0,94,0.00,OVC,,0.16,0.0,WeatherDisplay:10.37,2013-05-18 03:14:00,
2013-05-17 22:19:00,56.6,54.9,29.99,ESE,103,3.2,6.9,94,0.00,OVC,,0.16,0.0,WeatherDisplay:10.37,2013-05-18 03:19:00,
2013-05-17 22:24:00,56.6,54.9,29.98,South,180,3.6,9.2,94,0.00,OVC,,0.16,0.0,WeatherDisplay:10.37,2013-05-18 03:24:00,
2013-05-17 22:29:00,56.5,54.8,29.98,South,189,2.9,5.0,94,0.00,OVC,,0.16,0.0,WeatherDisplay:10.37,2013-05-18 03:29:00,
2013-05-17 22:34:00,56.5,55.1,29.98,SSW,211,2.0,5.8,95,0.00,OVC,,0.16,0.0,WeatherDisplay:10.37,2013-05-18 03:34:00,
2013-05-17 22:39:00,56.6,55.2,29.99,West,261,2.5,7.0,95,0.00,OVC,,0.16,0.0,WeatherDisplay:10.37,2013-05-18 03:39:00,
2013-05-17 22:44:00,56.6,54.9,29.99,South,191,5.0,11.0,94,0.00,OVC,,0.16,0.0,WeatherDisplay:10.37,2013-05-18 03:44:00,
2013-05-17 22:49:00,56.5,55.1,29.99,ENE,74,4.3,9.2,95,0.00,OVC,,0.16,0.0,WeatherDisplay:10.37,2013-05-18 03:49:00,
2013-05-17 22:54:00,56.5,55.1,29.98,SW,218,1.4,3.5,95,0.00,OVC,,0.16,0.0,WeatherDisplay:10.37,2013-05-18 03:54:00,
2013-05-17 22:59:00,56.5,55.1,29.99,ESE,117,4.9,14.0,95,0.00,OVC,,0.16,0.0,WeatherDisplay:10.37,2013-05-18 03:59:00,
2013-05-17 23:01:00,56.4,55.0,29.98,South,175,3.7,8.1,95,0.00,OVC,,0.16,0.0,WeatherDisplay:10.37,2013-05-18 04:01:00,
2013-05-17 23:02:00,56.4,55.0,29.98,South,175,3.7,8.1,95,0.00,OVC,,0.16,0.0,WeatherDisplay:10.37,2013-05-18 04:02:00,
2013-05-17 23:05:00,56.4,55.0,29.99,South,170,3.0,5.0,95,0.00,OVC,,0.16,0.0,WeatherDisplay:10.37,2013-05-18 04:05:00,
2013-05-17 23:09:00,56.4,55.0,29.98,South,181,3.1,6.0,95,0.00,OVC,,0.16,0.0,WeatherDisplay:10.37,2013-05-18 04:09:00,
2013-05-17 23:13:00,56.4,55.0,29.98,NNE,17,3.0,5.0,95,0.00,OVC,,0.16,0.0,WeatherDisplay:10.37,2013-05-18 04:13:00,
2013-05-17 23:18:00,56.3,54.9,29.98,ENE,78,1.2,4.0,95,0.00,OVC,,0.16,0.0,WeatherDisplay:10.37,2013-05-18 04:18:00,
2013-05-17 23:23:00,56.2,54.8,29.98,SSE,161,2.8,10.4,95,0.00,OVC,,0.16,0.0,WeatherDisplay:10.37,2013-05-18 04:23:00,
2013-05-17 23:28:00,56.1,54.7,29.98,SSE,150,2.6,7.0,95,0.00,OVC,,0.16,0.0,WeatherDisplay:10.37,2013-05-18 04:28:00,
2013-05-17 23:33:00,56.0,54.6,29.99,SE,134,2.9,7.0,95,0.00,OVC,,0.16,0.0,WeatherDisplay:10.37,2013-05-18 04:33:00,
2013-05-17 23:38:00,55.9,54.5,29.99,East,82,2.5,7.0,95,0.00,OVC,,0.16,0.0,WeatherDisplay:10.37,2013-05-18 04:38:00,
2013-05-17 23:43:00,55.9,54.5,29.98,South,190,2.4,5.8,95,0.00,OVC,,0.16,0.0,WeatherDisplay:10.37,2013-05-18 04:43:00,
2013-05-17 23:48:00,55.8,54.4,29.98,SE,134,1.8,4.0,95,0.00,OVC,,0.16,0.0,WeatherDisplay:10.37,2013-05-18 04:48:00,
2013-05-17 23:53:00,55.9,54.5,29.98,SE,146,2.1,6.0,95,0.00,OVC,,0.16,0.0,WeatherDisplay:10.37,2013-05-18 04:53:00,
2013-05-17 23:58:00,55.8,54.4,29.97,SSE,148,2.7,7.0,95,0.01,RA,,0.17,0.0,WeatherDisplay:10.37,2013-05-18 04:58:00,